Time;durP1;ratioP1;P1;durP2;ratioP2;P2;SDS_P1;SDS_P2;PMS_P1;PMS_P2;Temp;Humidity;BMP_temperature;BMP_pressure;BME280_temperature;BME280_humidity;BME280_pressure;Samples;Min_cycle;Max_cycle;Signal;HPM_P1;HPM_P2
2022/12/21 00:00:52;;;;;;;38.75;18.80;;;9.10;99.90;;;;;;5137488;27;20173;-77
2022/12/21 00:03:18;;;;;;;49.42;18.63;;;8.90;99.90;;;;;;5137682;27;20509;-77
2022/12/21 00:05:44;;;;;;;42.28;18.23;;;8.90;99.90;;;;;;5137465;27;20043;-77
2022/12/21 00:08:09;;;;;;;37.67;17.70;;;8.80;99.90;;;;;;5137306;27;20039;-78
2022/12/21 00:10:35;;;;;;;45.60;19.50;;;8.80;99.90;;;;;;5137331;27;20083;-78
2022/12/21 00:13:01;;;;;;;39.08;17.67;;;8.80;99.90;;;;;;5137325;27;20050;-77
2022/12/21 00:15:26;;;;;;;34.67;17.20;;;8.80;99.90;;;;;;5137241;27;20041;-77
2022/12/21 00:17:52;;;;;;;35.63;17.40;;;8.80;99.90;;;;;;5137686;27;20059;-78
2022/12/21 00:20:17;;;;;;;40.83;17.75;;;8.80;99.90;;;;;;5136633;27;20454;-78
2022/12/21 00:22:43;;;;;;;34.75;17.48;;;8.70;99.90;;;;;;5137121;27;20132;-77
2022/12/21 00:25:09;;;;;;;37.58;17.83;;;8.70;99.90;;;;;;5137052;27;20075;-77
2022/12/21 00:27:34;;;;;;;41.03;17.83;;;9.00;99.90;;;;;;5137104;27;20032;-78
2022/12/21 00:30:00;;;;;;;38.33;16.92;;;8.70;99.90;;;;;;5136934;27;20043;-77
2022/12/21 00:32:26;;;;;;;40.83;17.50;;;8.70;99.90;;;;;;5136937;27;20518;-77
2022/12/21 00:34:52;;;;;;;44.42;17.13;;;8.70;99.90;;;;;;5136634;27;20540;-78
2022/12/21 00:37:17;;;;;;;39.63;17.02;;;8.60;99.90;;;;;;5136784;27;20035;-78
2022/12/21 00:39:43;;;;;;;42.40;17.60;;;8.70;99.90;;;;;;5136718;27;20074;-77
2022/12/21 00:42:09;;;;;;;38.80;16.85;;;8.60;99.90;;;;;;5136757;27;20095;-78
2022/12/21 00:44:34;;;;;;;59.78;31.98;;;8.60;99.90;;;;;;5136653;27;20039;-77
2022/12/21 00:47:00;;;;;;;41.22;16.27;;;8.60;99.90;;;;;;5136145;27;20050;-77
2022/12/21 00:49:25;;;;;;;43.45;18.10;;;8.60;99.90;;;;;;5136538;27;20046;-77
2022/12/21 00:51:51;;;;;;;35.58;16.13;;;8.60;99.90;;;;;;5136808;27;20509;-76
2022/12/21 00:54:16;;;;;;;37.20;16.10;;;8.50;99.90;;;;;;5136482;27;20150;-78
2022/12/21 00:56:42;;;;;;;41.40;17.40;;;9.00;99.90;;;;;;5136401;27;20039;-77
2022/12/21 00:59:08;;;;;;;43.80;19.38;;;8.60;99.90;;;;;;5136403;27;20039;-77
2022/12/21 01:01:34;;;;;;;31.73;14.68;;;8.40;99.90;;;;;;5136278;27;20046;-78
2022/12/21 01:04:00;;;;;;;38.30;15.13;;;8.90;99.90;;;;;;5135972;27;20525;-78
2022/12/21 01:06:34;;;;;;;29.87;14.20;;;8.40;99.90;;;;;;5117883;27;20049;-78
2022/12/21 01:09:00;;;;;;;30.50;14.52;;;9.00;99.90;;;;;;5136248;27;20330;-77
2022/12/21 01:11:28;;;;;;;33.58;14.18;;;8.30;99.90;;;;;;5136115;27;20039;-77
2022/12/21 01:13:54;;;;;;;24.92;12.35;;;8.30;99.90;;;;;;5135963;27;20047;-78
2022/12/21 01:16:24;;;;;;;40.47;14.85;;;8.30;99.90;;;;;;5136025;27;20050;-78
2022/12/21 01:18:50;;;;;;;50.78;19.27;;;8.30;99.90;;;;;;5135958;27;20047;-78
2022/12/21 01:21:19;;;;;;;44.35;18.00;;;8.30;99.90;;;;;;5135921;27;20043;-78
2022/12/21 01:23:44;;;;;;;42.72;18.65;;;8.30;99.90;;;;;;5135866;27;20410;-78
2022/12/21 01:26:11;;;;;;;44.33;17.52;;;8.30;99.90;;;;;;5135712;27;20069;-77
2022/12/21 01:28:37;;;;;;;44.30;19.05;;;8.30;99.90;;;;;;5135710;27;20047;-78
2022/12/21 01:31:03;;;;;;;52.95;20.50;;;8.80;99.90;;;;;;5134858;27;20383;-77
2022/12/21 01:33:29;;;;;;;45.13;18.20;;;8.30;99.90;;;;;;5135629;27;20467;-77
2022/12/21 01:35:54;;;;;;;48.05;19.00;;;8.30;99.90;;;;;;5135657;27;20043;-77
2022/12/21 01:38:20;;;;;;;46.30;17.70;;;8.30;99.90;;;;;;5135547;27;20041;-76
2022/12/21 01:40:46;;;;;;;48.03;18.52;;;8.30;99.90;;;;;;5135582;27;20039;-78
2022/12/21 01:43:36;;;;;;;45.03;17.92;;;8.70;99.90;;;;;;5135421;27;20043;-77
2022/12/21 01:46:02;;;;;;;49.53;19.40;;;8.80;99.90;;;;;;5135129;27;20079;-78
2022/12/21 01:48:28;;;;;;;50.75;18.05;;;8.80;99.90;;;;;;5135424;27;20518;-78
2022/12/21 01:50:58;;;;;;;49.90;17.80;;;8.80;99.90;;;;;;5135344;27;20096;-77
2022/12/21 01:53:36;;;;;;;46.95;18.98;;;8.30;99.90;;;;;;5135449;27;20458;-77
2022/12/21 01:56:04;;;;;;;57.88;18.85;;;8.30;99.90;;;;;;5135242;27;20048;-77
2022/12/21 01:58:31;;;;;;;57.45;19.08;;;8.30;99.90;;;;;;5135166;27;20094;-77
2022/12/21 02:00:59;;;;;;;46.58;17.77;;;8.40;99.90;;;;;;5135114;27;20088;-77
2022/12/21 02:03:30;;;;;;;45.13;17.58;;;8.60;99.90;;;;;;5134872;27;20395;-77
2022/12/21 02:06:12;;;;;;;46.30;18.15;;;8.30;99.90;;;;;;5135187;27;20086;-78
2022/12/21 02:08:39;;;;;;;49.13;17.70;;;8.30;99.90;;;;;;5134672;27;20498;-77
2022/12/21 02:11:06;;;;;;;40.83;17.38;;;8.50;99.90;;;;;;5134979;27;20043;-78
2022/12/21 02:13:32;;;;;;;43.13;16.70;;;8.20;99.90;;;;;;5134914;27;20084;-77
2022/12/21 02:16:15;;;;;;;50.47;18.08;;;8.50;99.90;;;;;;5116546;27;20474;-77
2022/12/21 02:19:01;;;;;;;41.95;17.15;;;8.20;99.90;;;;;;5134601;27;20399;-77
2022/12/21 02:21:49;;;;;;;39.40;16.10;;;8.20;99.90;;;;;;5134967;27;20047;-78
2022/12/21 02:24:33;;;;;;;42.60;16.15;;;8.80;99.90;;;;;;5082498;27;20471;-77
2022/12/21 02:27:18;;;;;;;45.88;16.63;;;8.20;99.90;;;;;;5134678;27;20090;-77
2022/12/21 02:30:13;;;;;;;49.00;16.80;;;8.20;99.90;;;;;;5134574;27;20047;-77
2022/12/21 02:33:06;;;;;;;44.08;15.48;;;8.20;99.90;;;;;;5135001;27;20133;-77
2022/12/21 02:35:47;;;;;;;47.53;17.13;;;8.20;99.90;;;;;;5134943;27;20039;-77
2022/12/21 02:38:27;;;;;;;38.28;14.43;;;8.10;99.90;;;;;;5134909;27;20062;-78
2022/12/21 02:41:07;;;;;;;47.67;16.50;;;8.10;99.90;;;;;;5134473;27;20046;-77
2022/12/21 02:46:22;;;;;;;39.72;15.25;;;8.10;99.90;;;;;;5134583;27;20055;-77
2022/12/21 02:49:03;;;;;;;35.90;13.80;;;8.10;99.90;;;;;;5134301;28;20387;-78
2022/12/21 02:51:38;;;;;;;34.72;13.52;;;8.10;99.90;;;;;;5134667;28;20432;-77
2022/12/21 02:54:04;;;;;;;47.50;23.77;;;8.10;99.90;;;;;;5134488;28;20455;-77
2022/12/21 02:56:30;;;;;;;39.10;13.45;;;8.10;99.90;;;;;;5134422;28;20067;-76
2022/12/21 02:58:56;;;;;;;31.83;12.93;;;8.10;99.90;;;;;;5134434;28;20452;-77
2022/12/21 03:01:57;;;;;;;28.23;11.75;;;8.00;99.90;;;;;;5134380;28;20043;-77
2022/12/21 03:04:28;;;;;;;26.55;11.88;;;8.00;99.90;;;;;;5086214;28;20043;-77
2022/12/21 03:07:14;;;;;;;36.72;13.30;;;8.00;99.90;;;;;;5134147;28;20126;-77
2022/12/21 03:09:53;;;;;;;27.10;11.30;;;8.40;99.90;;;;;;5082045;28;20047;-78
2022/12/21 03:12:57;;;;;;;26.90;11.75;;;7.90;99.90;;;;;;5116062;28;20126;-78
2022/12/21 03:15:36;;;;;;;32.95;13.23;;;7.90;99.90;;;;;;5134402;28;20095;-77
2022/12/21 03:18:23;;;;;;;29.30;11.55;;;7.90;99.90;;;;;;5134529;28;20074;-77
2022/12/21 03:21:05;;;;;;;30.25;13.30;;;7.80;99.90;;;;;;5134386;28;20062;-78
2022/12/21 03:23:53;;;;;;;30.02;12.63;;;7.80;99.90;;;;;;5134183;28;20043;-78
2022/12/21 03:26:27;;;;;;;28.13;12.32;;;7.80;99.90;;;;;;5133969;28;20082;-77
2022/12/21 03:28:53;;;;;;;31.17;13.27;;;7.80;99.90;;;;;;5134373;28;20043;-77
2022/12/21 03:31:24;;;;;;;31.17;12.83;;;7.80;99.90;;;;;;5134067;28;20082;-77
2022/12/21 03:34:07;;;;;;;49.92;15.23;;;7.80;99.90;;;;;;5133955;28;20051;-78
2022/12/21 03:36:44;;;;;;;38.53;14.88;;;7.80;99.90;;;;;;5134051;28;20050;-78
2022/12/21 03:39:14;;;;;;;38.22;14.75;;;7.80;99.90;;;;;;5135868;28;20055;-77
2022/12/21 03:41:49;;;;;;;36.33;14.25;;;8.30;99.90;;;;;;5148620;28;20055;-76
2022/12/21 03:44:20;;;;;;;37.60;14.57;;;7.80;99.90;;;;;;5128462;28;20435;-77
2022/12/21 03:46:57;;;;;;;40.15;15.23;;;7.80;99.90;;;;;;5146947;28;20055;-77
2022/12/21 03:49:32;;;;;;;48.55;16.38;;;8.40;99.90;;;;;;5148872;28;20065;-76
2022/12/21 03:52:04;;;;;;;39.00;15.25;;;7.70;99.90;;;;;;5129876;28;20051;-76
2022/12/21 03:55:00;;;;;;;44.03;14.90;;;8.30;99.90;;;;;;5142795;27;20127;-77
2022/12/21 03:57:26;;;;;;;39.97;14.88;;;7.70;99.90;;;;;;5137754;27;20486;-78
2022/12/21 03:59:55;;;;;;;45.03;16.33;;;7.70;99.90;;;;;;5137538;27;20101;-78
2022/12/21 04:02:28;;;;;;;48.35;16.42;;;7.80;99.90;;;;;;5137675;27;20456;-77
2022/12/21 04:05:03;;;;;;;50.35;16.05;;;7.70;99.90;;;;;;5137609;27;20100;-77
2022/12/21 04:07:31;;;;;;;44.00;15.70;;;7.70;99.90;;;;;;5137344;27;20046;-78
2022/12/21 04:10:12;;;;;;;41.90;15.48;;;7.70;99.90;;;;;;5137345;27;20046;-78
2022/12/21 04:12:39;;;;;;;45.38;16.17;;;7.70;99.90;;;;;;5137918;27;20043;-78
2022/12/21 04:15:16;;;;;;;48.13;16.40;;;7.70;99.90;;;;;;5137270;27;20044;-77
2022/12/21 04:17:45;;;;;;;41.63;14.75;;;7.60;99.90;;;;;;5118754;27;20130;-77
2022/12/21 04:20:15;;;;;;;43.95;15.30;;;8.30;99.90;;;;;;5137607;27;20097;-78
2022/12/21 04:28:24;;;;;;;44.05;15.68;;;7.70;99.90;;;;;;5136940;27;20130;-77
2022/12/21 04:30:50;;;;;;;34.78;14.35;;;7.70;99.90;;;;;;5137187;27;20054;-78
2022/12/21 04:33:18;;;;;;;44.63;14.50;;;7.70;99.90;;;;;;5136893;27;20043;-77
2022/12/21 04:38:32;;;;;;;42.17;15.40;;;7.70;99.90;;;;;;5136847;27;20051;-78
2022/12/21 04:40:58;;;;;;;46.55;15.85;;;7.70;99.90;;;;;;5136988;27;20420;-77
2022/12/21 04:43:25;;;;;;;47.10;15.20;;;7.70;99.90;;;;;;5137757;27;20092;-77
2022/12/21 04:46:02;;;;;;;31.58;13.15;;;8.20;99.90;;;;;;5137347;27;20084;-77
2022/12/21 04:48:28;;;;;;;;;;;7.70;99.90;;;;;;5138132;27;20043;-77
2022/12/21 04:50:54;;;;;;;33.17;12.60;;;7.70;99.90;;;;;;5137294;27;19919;-78
2022/12/21 04:53:20;;;;;;;34.97;12.65;;;8.20;99.90;;;;;;5137069;27;20051;-78
2022/12/21 04:55:45;;;;;;;40.58;21.30;;;8.10;99.90;;;;;;5136799;27;20043;-77
2022/12/21 04:58:12;;;;;;;48.38;15.48;;;7.60;99.90;;;;;;5136371;27;20094;-77
2022/12/21 05:00:38;;;;;;;41.28;14.20;;;7.70;99.90;;;;;;5118008;27;20039;-78
2022/12/21 05:03:04;;;;;;;51.05;23.67;;;7.60;99.90;;;;;;5136325;27;20046;-77
2022/12/21 05:05:30;;;;;;;37.53;13.15;;;7.70;99.90;;;;;;5136281;27;20043;-78
2022/12/21 05:07:56;;;;;;;52.47;15.17;;;7.60;99.90;;;;;;5117811;27;20085;-77
2022/12/21 05:10:22;;;;;;;48.40;15.77;;;7.60;99.90;;;;;;5136133;27;20047;-78
2022/12/21 05:12:48;;;;;;;62.13;16.67;;;7.60;99.90;;;;;;5136129;27;20039;-78
2022/12/21 05:15:14;;;;;;;45.42;15.90;;;8.00;99.90;;;;;;5136043;27;20096;-78
2022/12/21 05:17:40;;;;;;;37.22;14.20;;;7.60;99.90;;;;;;5136040;27;20053;-77
2022/12/21 05:20:07;;;;;;;36.95;14.13;;;7.60;99.90;;;;;;5136031;27;20082;-77
2022/12/21 05:22:32;;;;;;;43.35;14.73;;;7.60;99.90;;;;;;5135861;27;20054;-78
2022/12/21 05:24:58;;;;;;;43.08;14.95;;;7.60;99.90;;;;;;5135765;27;20042;-76
2022/12/21 05:27:24;;;;;;;49.88;23.95;;;7.50;99.90;;;;;;5135668;27;20080;-81
2022/12/21 05:29:50;;;;;;;51.30;16.17;;;7.50;99.90;;;;;;5117642;27;20435;-79
2022/12/21 05:32:16;;;;;;;29.48;12.57;;;7.90;99.90;;;;;;5135594;27;20039;-80
2022/12/21 05:34:41;;;;;;;47.08;15.70;;;7.50;99.90;;;;;;5135685;27;20091;-79
2022/12/21 05:37:07;;;;;;;43.67;15.55;;;7.50;99.90;;;;;;5117397;27;20044;-80
2022/12/21 05:39:34;;;;;;;41.30;14.33;;;7.50;99.90;;;;;;5135544;27;20039;-79
2022/12/21 05:42:01;;;;;;;41.97;15.93;;;7.60;99.90;;;;;;5117723;27;20126;-78
2022/12/21 05:44:27;;;;;;;45.63;16.02;;;8.20;99.90;;;;;;5135479;27;20043;-78
2022/12/21 05:46:52;;;;;;;39.65;14.57;;;7.50;99.90;;;;;;5135192;27;20513;-78
2022/12/21 05:49:18;;;;;;;36.20;14.52;;;7.50;99.90;;;;;;5135437;27;20139;-78
2022/12/21 05:51:46;;;;;;;46.42;16.77;;;7.50;99.90;;;;;;5135361;27;20043;-78
2022/12/21 05:54:12;;;;;;;52.50;17.08;;;7.50;99.90;;;;;;5135152;27;20043;-78
2022/12/21 05:56:38;;;;;;;47.17;16.42;;;8.10;99.90;;;;;;5135228;27;20046;-78
2022/12/21 05:59:03;;;;;;;69.35;29.73;;;7.80;99.90;;;;;;5135139;27;20104;-77
2022/12/21 06:01:29;;;;;;;52.88;16.48;;;7.50;99.90;;;;;;5135136;27;20049;-76
2022/12/21 06:03:55;;;;;;;71.93;32.40;;;7.50;99.90;;;;;;5135181;27;20130;-76
2022/12/21 06:06:21;;;;;;;62.20;23.35;;;7.50;99.90;;;;;;5135097;27;20042;-77
2022/12/21 06:08:46;;;;;;;78.72;32.33;;;7.50;99.90;;;;;;5134650;27;20050;-77
2022/12/21 06:11:18;;;;;;;50.05;16.60;;;7.60;99.90;;;;;;5133478;27;20074;-77
2022/12/21 06:13:44;;;;;;;45.97;16.45;;;7.70;99.90;;;;;;5111756;27;20088;-74
2022/12/21 06:16:16;;;;;;;72.93;31.92;;;7.50;99.90;;;;;;5133105;27;20047;-76
2022/12/21 06:18:42;;;;;;;52.80;17.45;;;7.80;99.90;;;;;;5132979;27;20039;-78
2022/12/21 06:21:09;;;;;;;46.38;17.05;;;7.60;99.90;;;;;;5134201;27;20100;-79
2022/12/21 06:23:36;;;;;;;53.88;18.30;;;7.60;99.90;;;;;;5132667;27;20512;-76
2022/12/21 06:26:04;;;;;;;96.82;37.85;;;7.60;99.90;;;;;;5133742;27;20043;-77
2022/12/21 06:28:30;;;;;;;60.13;19.05;;;7.60;99.90;;;;;;5134261;27;20051;-76
2022/12/21 06:31:02;;;;;;;95.28;38.33;;;7.60;99.90;;;;;;5134610;27;20038;-75
2022/12/21 06:33:27;;;;;;;61.85;19.58;;;7.70;99.90;;;;;;5134773;27;20043;-76
2022/12/21 06:35:55;;;;;;;60.10;19.38;;;7.60;99.90;;;;;;5134517;27;20035;-75
2022/12/21 06:38:21;;;;;;;79.15;20.80;;;7.60;99.90;;;;;;5134532;27;20095;-75
2022/12/21 06:41:02;;;;;;;74.53;22.40;;;7.60;99.90;;;;;;5134355;27;20505;-75
2022/12/21 06:43:30;;;;;;;69.70;20.00;;;7.60;99.90;;;;;;5134595;27;20050;-78
2022/12/21 06:45:58;;;;;;;75.05;22.15;;;7.60;99.90;;;;;;5137675;27;20095;-76
2022/12/21 06:48:25;;;;;;;70.00;21.67;;;7.60;99.90;;;;;;5134345;27;20132;-76
2022/12/21 06:50:52;;;;;;;68.38;21.55;;;7.70;99.90;;;;;;5134357;28;20046;-75
2022/12/21 06:53:18;;;;;;;73.60;21.15;;;7.60;99.90;;;;;;5134360;28;20039;-76
2022/12/21 06:55:43;;;;;;;77.60;21.83;;;7.60;99.90;;;;;;5134446;28;20046;-79
2022/12/21 06:58:09;;;;;;;64.63;19.98;;;7.60;99.90;;;;;;5134358;28;20479;-77
2022/12/21 07:00:34;;;;;;;58.85;20.15;;;7.60;99.90;;;;;;5134348;28;20039;-76
2022/12/21 07:03:00;;;;;;;67.35;21.15;;;7.60;99.90;;;;;;5134289;28;20039;-78
2022/12/21 07:05:25;;;;;;;63.80;21.10;;;7.60;99.90;;;;;;5134107;28;20072;-79
2022/12/21 07:07:51;;;;;;;68.95;20.58;;;7.60;99.90;;;;;;5134554;28;20049;-75
2022/12/21 07:10:16;;;;;;;69.07;21.75;;;8.00;99.90;;;;;;5134350;28;20391;-83
2022/12/21 07:12:42;;;;;;;96.93;22.40;;;7.60;99.90;;;;;;5134355;28;20540;-84
2022/12/21 07:15:09;;;;;;;76.38;22.70;;;7.60;99.90;;;;;;5116564;28;20054;-77
2022/12/21 07:17:34;;;;;;;66.88;22.33;;;7.70;99.90;;;;;;5134468;28;20069;-73
2022/12/21 07:20:00;;;;;;;64.60;20.45;;;7.60;99.90;;;;;;5134264;28;20047;-76
2022/12/21 07:22:25;;;;;;;69.78;19.88;;;7.60;99.90;;;;;;5134285;28;20047;-75
2022/12/21 07:24:51;;;;;;;63.17;21.67;;;7.60;99.90;;;;;;5134619;28;20047;-76
2022/12/21 07:27:17;;;;;;;67.70;21.48;;;7.70;99.90;;;;;;5134287;28;20058;-75
2022/12/21 07:29:42;;;;;;;89.70;23.65;;;7.90;99.90;;;;;;5136023;27;20082;-76
2022/12/21 07:32:08;;;;;;;62.50;21.50;;;7.60;99.90;;;;;;5138126;27;20058;-76
2022/12/21 07:34:34;;;;;;;75.00;22.85;;;7.80;99.90;;;;;;5137929;27;20043;-77
2022/12/21 07:36:59;;;;;;;77.47;24.40;;;7.60;99.90;;;;;;5137682;27;20043;-76
2022/12/21 07:39:25;;;;;;;105.78;42.30;;;8.20;99.90;;;;;;5138077;27;20122;-74
2022/12/21 07:41:50;;;;;;;70.70;22.00;;;7.80;99.90;;;;;;5138179;27;20042;-78
2022/12/21 07:44:16;;;;;;;116.65;43.95;;;7.60;99.90;;;;;;5137980;27;20051;-78
2022/12/21 07:46:42;;;;;;;94.55;24.98;;;7.60;99.90;;;;;;5137435;27;20483;-81
2022/12/21 07:49:07;;;;;;;75.45;21.95;;;8.10;99.90;;;;;;5137791;27;20043;-80
2022/12/21 07:51:33;;;;;;;82.35;24.60;;;7.60;99.90;;;;;;5137844;27;20043;-77
2022/12/21 07:53:58;;;;;;;76.53;21.98;;;7.60;99.90;;;;;;5137583;27;20054;-76
2022/12/21 07:56:24;;;;;;;88.55;25.27;;;7.60;99.90;;;;;;5137705;27;20039;-74
2022/12/21 07:58:49;;;;;;;181.38;52.08;;;8.30;99.90;;;;;;5137766;27;20095;-77
2022/12/21 08:01:17;;;;;;;91.05;25.65;;;8.10;99.90;;;;;;5137705;27;20047;-74
2022/12/21 08:03:44;;;;;;;72.70;23.05;;;7.60;99.90;;;;;;5137960;27;20043;-77
2022/12/21 08:06:10;;;;;;;85.68;23.27;;;7.50;99.90;;;;;;5137598;27;20387;-77
2022/12/21 08:08:37;;;;;;;76.50;23.25;;;7.50;99.90;;;;;;5137555;27;20031;-78
2022/12/21 08:11:04;;;;;;;129.77;26.35;;;7.50;99.90;;;;;;5137927;27;20470;-77
2022/12/21 08:13:29;;;;;;;111.13;24.48;;;7.50;99.90;;;;;;5137359;27;20092;-77
2022/12/21 08:16:00;;;;;;;95.38;24.23;;;8.00;99.90;;;;;;5137326;27;20046;-75
2022/12/21 08:18:26;;;;;;;127.93;26.80;;;7.50;99.90;;;;;;5137094;27;20436;-72
2022/12/21 08:20:53;;;;;;;72.82;22.65;;;7.50;99.90;;;;;;5137125;27;20043;-70
2022/12/21 08:23:19;;;;;;;86.35;23.95;;;7.50;99.90;;;;;;5137167;27;20086;-72
2022/12/21 08:25:45;;;;;;;68.35;21.50;;;7.80;99.90;;;;;;5137229;27;20051;-79
2022/12/21 08:28:12;;;;;;;74.22;22.67;;;7.50;99.90;;;;;;5137119;27;20081;-77
2022/12/21 08:30:38;;;;;;;;;;;7.40;99.90;;;;;;5137231;27;20043;-76
2022/12/21 08:33:03;;;;;;;82.53;22.48;;;7.40;99.90;;;;;;5136886;27;20027;-80
2022/12/21 08:35:29;;;;;;;74.60;22.60;;;7.40;99.90;;;;;;5136848;27;20510;-77
2022/12/21 08:37:55;;;;;;;96.95;25.80;;;7.60;99.90;;;;;;5136602;27;20395;-72
2022/12/21 08:40:21;;;;;;;78.18;22.67;;;7.50;99.90;;;;;;5136771;27;20039;-77
2022/12/21 08:42:46;;;;;;;76.63;22.23;;;7.50;99.90;;;;;;5154258;27;20562;-76
2022/12/21 08:45:12;;;;;;;188.32;52.33;;;7.50;99.90;;;;;;5138596;27;20045;-77
2022/12/21 08:47:38;;;;;;;72.18;23.17;;;7.50;99.90;;;;;;5157218;27;20051;-75
2022/12/21 08:50:05;;;;;;;71.77;23.10;;;7.50;99.90;;;;;;5157769;27;20039;-74
2022/12/21 08:52:30;;;;;;;85.03;23.52;;;7.50;99.90;;;;;;5157984;27;20091;-76
2022/12/21 08:54:57;;;;;;;93.15;23.10;;;7.50;99.90;;;;;;5157222;27;20046;-74
2022/12/21 08:57:23;;;;;;;79.97;24.17;;;7.50;99.90;;;;;;5157250;27;20402;-77
2022/12/21 08:59:49;;;;;;;68.68;21.30;;;7.60;99.90;;;;;;5156966;27;20046;-76
2022/12/21 09:02:15;;;;;;;112.80;42.13;;;7.50;99.90;;;;;;5157009;27;20034;-73
2022/12/21 09:04:40;;;;;;;68.97;22.30;;;7.50;99.90;;;;;;5138758;27;20092;-72
2022/12/21 09:07:06;;;;;;;123.88;42.83;;;7.50;99.90;;;;;;5156989;27;20518;-74
2022/12/21 09:09:33;;;;;;;64.95;22.23;;;7.50;99.90;;;;;;5157098;27;20042;-77
2022/12/21 09:11:59;;;;;;;71.35;22.10;;;7.80;99.90;;;;;;5156579;27;20050;-71
2022/12/21 09:14:25;;;;;;;75.10;23.15;;;7.50;99.90;;;;;;5156716;27;20064;-74
2022/12/21 09:16:51;;;;;;;80.97;23.65;;;8.10;99.90;;;;;;5156651;27;20051;-75
2022/12/21 09:19:17;;;;;;;65.63;22.80;;;7.50;99.90;;;;;;5156691;27;20466;-75
2022/12/21 09:21:43;;;;;;;78.22;22.92;;;7.60;99.90;;;;;;5156669;27;20083;-76
2022/12/21 09:24:09;;;;;;;81.25;39.00;;;7.60;99.90;;;;;;5156485;27;20056;-75
2022/12/21 09:26:34;;;;;;;85.20;24.58;;;7.60;99.90;;;;;;5156701;27;20042;-73
2022/12/21 09:29:00;;;;;;;68.70;22.27;;;7.70;99.90;;;;;;5156436;27;20064;-71
2022/12/21 09:31:26;;;;;;;104.97;42.85;;;7.60;99.90;;;;;;5156443;27;20136;-77
2022/12/21 09:33:53;;;;;;;68.97;22.45;;;7.60;99.90;;;;;;5156245;27;20035;-73
2022/12/21 09:36:19;;;;;;;58.58;20.80;;;7.60;99.90;;;;;;5156039;27;20053;-72
2022/12/21 09:38:45;;;;;;;62.72;21.48;;;7.60;99.90;;;;;;5156228;27;20046;-72
2022/12/21 09:41:28;;;;;;;56.80;20.17;;;7.60;99.90;;;;;;5156194;27;20038;-75
2022/12/21 09:44:21;;;;;;;66.55;20.58;;;7.60;99.90;;;;;;5156045;27;20057;-71
2022/12/21 09:46:51;;;;;;;59.80;20.80;;;7.60;99.90;;;;;;5156341;27;20444;-74
2022/12/21 09:49:36;;;;;;;61.67;20.15;;;7.60;99.90;;;;;;5130913;27;20043;-74
2022/12/21 09:52:04;;;;;;;71.00;35.33;;;7.60;99.90;;;;;;5134495;27;20039;-76
2022/12/21 09:54:41;;;;;;;49.80;19.23;;;7.60;99.90;;;;;;5134926;27;20051;-77
2022/12/21 09:57:12;;;;;;;57.22;18.52;;;7.60;99.90;;;;;;5135220;27;20074;-71
2022/12/21 09:59:38;;;;;;;52.50;19.02;;;7.70;99.90;;;;;;5134903;27;20495;-74
2022/12/21 10:02:18;;;;;;;48.65;18.88;;;7.70;99.90;;;;;;5135395;27;20082;-74
2022/12/21 10:05:06;;;;;;;55.72;19.10;;;7.70;99.90;;;;;;5135124;27;20047;-73
2022/12/21 10:08:06;;;;;;;69.95;33.95;;;7.70;99.90;;;;;;5135459;27;20047;-73
2022/12/21 10:10:50;;;;;;;53.80;20.58;;;7.70;99.90;;;;;;5135122;27;20039;-73
2022/12/21 10:13:24;;;;;;;54.30;18.88;;;7.70;99.90;;;;;;5134723;27;20042;-72
2022/12/21 10:16:23;;;;;;;51.42;18.58;;;7.70;99.90;;;;;;5134876;27;20046;-76
2022/12/21 10:18:57;;;;;;;;;;;7.70;99.90;;;;;;5135599;27;20043;-75
2022/12/21 10:21:40;;;;;;;51.55;19.05;;;7.70;99.90;;;;;;5134763;27;19919;-78
2022/12/21 10:24:19;;;;;;;49.95;17.95;;;7.80;99.90;;;;;;5135129;27;20453;-79
2022/12/21 10:26:45;;;;;;;50.95;19.05;;;7.80;99.90;;;;;;5135031;27;20047;-74
2022/12/21 10:29:16;;;;;;;52.55;20.08;;;8.00;99.90;;;;;;5116681;28;20436;-74
2022/12/21 10:31:45;;;;;;;54.88;18.77;;;7.80;99.90;;;;;;5134861;27;20411;-75
2022/12/21 10:34:17;;;;;;;50.80;18.67;;;7.80;99.90;;;;;;5134471;27;20490;-74
2022/12/21 10:36:44;;;;;;;58.78;19.90;;;7.80;99.90;;;;;;5134617;27;20039;-75
2022/12/21 10:39:14;;;;;;;54.33;20.67;;;8.00;99.90;;;;;;5134580;27;20126;-76
2022/12/21 10:41:47;;;;;;;59.20;19.13;;;7.80;99.90;;;;;;5134720;27;20051;-75
2022/12/21 10:44:13;;;;;;;61.38;20.60;;;7.90;99.90;;;;;;5116307;28;20130;-80
2022/12/21 10:46:39;;;;;;;57.00;20.73;;;7.90;99.90;;;;;;5134361;27;20055;-78
2022/12/21 10:49:31;;;;;;;49.42;18.48;;;7.90;99.90;;;;;;5134195;27;20047;-79
2022/12/21 10:51:57;;;;;;;56.35;19.20;;;8.00;99.90;;;;;;5134815;28;20391;-80
2022/12/21 10:54:28;;;;;;;56.58;20.77;;;8.00;99.90;;;;;;5134389;28;20046;-79
2022/12/21 10:56:57;;;;;;;52.00;19.88;;;8.00;99.90;;;;;;5134304;28;20035;-79
2022/12/21 10:59:38;;;;;;;49.03;17.75;;;8.00;99.90;;;;;;5116275;28;20043;-80
2022/12/21 11:02:06;;;;;;;47.45;17.75;;;8.40;99.90;;;;;;5135096;28;20436;-79
2022/12/21 11:04:32;;;;;;;51.75;18.45;;;8.00;99.90;;;;;;5136618;27;20070;-79
2022/12/21 11:07:04;;;;;;;48.42;17.33;;;8.10;99.90;;;;;;5138501;27;20051;-78
2022/12/21 11:09:33;;;;;;;46.20;18.38;;;8.10;99.90;;;;;;5155178;27;20043;-80
2022/12/21 11:12:22;;;;;;;47.42;18.38;;;8.20;99.90;;;;;;5138514;27;20134;-78
2022/12/21 11:14:49;;;;;;;49.85;18.13;;;8.20;99.90;;;;;;5138428;27;20043;-79
2022/12/21 11:17:35;;;;;;;49.15;17.88;;;8.30;99.90;;;;;;5137892;27;20043;-78
2022/12/21 11:20:13;;;;;;;49.40;18.67;;;8.30;99.90;;;;;;5137352;27;20055;-79
2022/12/21 11:22:43;;;;;;;41.25;16.98;;;9.00;99.90;;;;;;5136045;27;20058;-79
2022/12/21 11:25:17;;;;;;;43.38;18.08;;;9.00;99.90;;;;;;5136223;27;20053;-79
2022/12/21 11:27:49;;;;;;;47.65;18.63;;;8.40;99.90;;;;;;5136703;27;20118;-78
2022/12/21 11:30:26;;;;;;;41.35;18.45;;;9.20;99.90;;;;;;5136881;27;20125;-79
2022/12/21 11:32:54;;;;;;;43.63;18.52;;;8.50;99.90;;;;;;5136808;27;20038;-79
2022/12/21 11:35:34;;;;;;;52.42;20.10;;;8.40;99.90;;;;;;5137540;27;20123;-78
2022/12/21 11:38:17;;;;;;;47.35;19.05;;;8.40;99.90;;;;;;5138049;27;20491;-76
2022/12/21 11:40:54;;;;;;;48.40;20.50;;;8.40;99.90;;;;;;5138076;27;20175;-81
2022/12/21 11:43:20;;;;;;;50.85;18.60;;;8.70;99.90;;;;;;5137895;27;20043;-79
2022/12/21 11:46:20;;;;;;;51.78;21.83;;;8.40;99.90;;;;;;5137360;27;20043;-79
2022/12/21 11:49:13;;;;;;;55.08;20.70;;;8.40;99.90;;;;;;5137174;27;20051;-81
2022/12/21 11:52:03;;;;;;;49.13;20.00;;;8.40;99.90;;;;;;5137484;27;20047;-76
2022/12/21 11:54:36;;;;;;;53.88;20.90;;;8.40;99.90;;;;;;5137473;27;20051;-75
2022/12/21 11:57:38;;;;;;;56.53;21.65;;;8.50;99.90;;;;;;5137551;27;20122;-74
2022/12/21 12:00:05;;;;;;;50.83;21.60;;;8.40;99.90;;;;;;5137222;27;20101;-76
2022/12/21 12:02:40;;;;;;;57.97;20.35;;;8.50;99.90;;;;;;5137098;27;20086;-76
2022/12/21 12:05:45;;;;;;;54.30;21.88;;;8.40;99.90;;;;;;5137322;27;20100;-75
2022/12/21 12:08:22;;;;;;;59.95;21.63;;;8.50;99.90;;;;;;5112728;27;20059;-76
2022/12/21 12:11:27;;;;;;;58.63;20.80;;;8.50;99.90;;;;;;5137359;27;20042;-76
2022/12/21 12:14:07;;;;;;;63.58;22.80;;;8.50;99.90;;;;;;5124580;27;20050;-76
2022/12/21 12:16:51;;;;;;;57.90;22.52;;;8.50;99.90;;;;;;5136477;27;20122;-78
2022/12/21 12:19:55;;;;;;;50.15;21.27;;;8.50;99.90;;;;;;5137018;27;20499;-74
2022/12/21 12:22:47;;;;;;;57.25;22.67;;;8.50;99.90;;;;;;5053556;28;20048;-76
2022/12/21 12:25:40;;;;;;;50.40;20.60;;;8.40;99.90;;;;;;5117674;27;20058;-76
2022/12/21 12:28:12;;;;;;;57.38;21.83;;;8.50;99.90;;;;;;5118914;27;20395;-75
2022/12/21 12:31:15;;;;;;;64.25;22.13;;;8.50;99.90;;;;;;5136571;27;20509;-75
2022/12/21 12:33:55;;;;;;;57.90;21.95;;;8.40;99.90;;;;;;5101417;27;20050;-76
2022/12/21 12:36:36;;;;;;;59.15;21.95;;;8.30;99.90;;;;;;5136971;27;20094;-75
2022/12/21 12:39:23;;;;;;;57.72;22.05;;;8.30;99.90;;;;;;5137060;27;20164;-78
2022/12/21 12:42:11;;;;;;;59.03;23.20;;;8.30;99.90;;;;;;5118538;27;20505;-75
2022/12/21 12:44:46;;;;;;;66.53;23.73;;;8.30;99.90;;;;;;5136484;27;20043;-77
2022/12/21 12:47:30;;;;;;;52.72;21.08;;;8.30;99.90;;;;;;5136408;27;20047;-76
2022/12/21 12:50:17;;;;;;;58.05;22.95;;;8.40;99.90;;;;;;5136599;27;20085;-77
2022/12/21 12:52:56;;;;;;;65.97;24.48;;;8.40;99.90;;;;;;5136518;27;20043;-77
2022/12/21 12:55:39;;;;;;;56.80;22.42;;;8.40;99.90;;;;;;5136217;27;20100;-77
2022/12/21 12:58:15;;;;;;;67.60;23.30;;;8.70;99.90;;;;;;5136175;27;20047;-77
2022/12/21 13:01:11;;;;;;;55.78;22.85;;;8.40;99.90;;;;;;5135793;27;20046;-75
2022/12/21 13:03:57;;;;;;;51.53;20.38;;;8.50;99.90;;;;;;5136132;27;20062;-77
2022/12/21 13:06:59;;;;;;;56.95;21.48;;;8.50;99.90;;;;;;5136045;27;20039;-76
2022/12/21 13:09:40;;;;;;;50.95;21.15;;;8.50;99.90;;;;;;5136266;27;20520;-77
2022/12/21 13:12:08;;;;;;;49.72;19.98;;;8.50;99.90;;;;;;5135807;27;20834;-78